createdAt,value
2023-01-15T00:02:20.034Z,1.00
2023-01-15T00:04:48.505Z,1.07
2023-01-15T00:07:16.844Z,1.43
2023-01-15T00:09:45.339Z,1.30
2023-01-15T00:12:13.773Z,1.60
2023-01-15T00:14:42.168Z,1.40
2023-01-15T00:17:10.502Z,1.30
2023-01-15T00:19:40.277Z,1.43
2023-01-15T00:22:08.734Z,1.30
2023-01-15T00:24:55.120Z,1.23
2023-01-15T00:27:43.626Z,1.40
2023-01-15T00:30:14.044Z,1.67
2023-01-15T00:32:43.403Z,1.53
2023-01-15T00:35:15.848Z,1.50
2023-01-15T00:37:44.401Z,1.50
2023-01-15T00:40:13.716Z,1.50
2023-01-15T00:42:43.115Z,1.53
2023-01-15T00:45:22.476Z,1.73
2023-01-15T00:47:51.740Z,1.77
2023-01-15T00:50:21.535Z,1.13
2023-01-15T00:52:49.791Z,1.50
2023-01-15T00:55:18.306Z,1.67
2023-01-15T00:57:46.906Z,2.00
2023-01-15T01:00:16.794Z,1.53
2023-01-15T01:02:45.637Z,1.90
2023-01-15T01:05:14.217Z,1.90
2023-01-15T01:07:45.087Z,1.07
2023-01-15T01:10:13.687Z,1.30
2023-01-15T01:12:41.982Z,1.47
2023-01-15T01:15:11.388Z,1.30
2023-01-15T01:17:40.381Z,1.50
2023-01-15T01:20:11.091Z,1.27
2023-01-15T01:22:41.210Z,1.27
2023-01-15T01:25:11.848Z,2.10
2023-01-15T01:27:40.924Z,1.30
2023-01-15T01:30:10.809Z,1.03
2023-01-15T01:32:39.118Z,1.40
2023-01-15T01:35:08.526Z,1.40
2023-01-15T01:37:37.115Z,1.33
2023-01-15T01:40:06.539Z,1.43
2023-01-15T01:42:36.234Z,1.30
2023-01-15T01:45:17.820Z,0.97
2023-01-15T01:47:48.601Z,1.53
2023-01-15T01:50:17.744Z,1.20
2023-01-15T01:52:48.680Z,1.40
2023-01-15T01:55:19.437Z,0.73
2023-01-15T01:57:52.001Z,1.17
2023-01-15T02:00:21.744Z,1.23
2023-01-15T02:02:50.808Z,1.53
2023-01-15T02:05:25.375Z,1.10
2023-01-15T02:07:55.570Z,1.50
2023-01-15T02:10:24.461Z,1.53
2023-01-15T02:12:58.689Z,1.13
2023-01-15T02:15:34.231Z,1.13
2023-01-15T02:18:09.576Z,1.30
2023-01-15T02:20:40.591Z,1.10
2023-01-15T02:23:43.817Z,1.30
2023-01-15T02:26:27.062Z,0.97
2023-01-15T02:28:58.668Z,1.40
2023-01-15T02:31:31.145Z,1.13
2023-01-15T02:34:03.563Z,1.33
2023-01-15T02:36:35.567Z,1.60
2023-01-15T02:39:07.063Z,1.10
2023-01-15T02:41:38.303Z,1.80
2023-01-15T02:44:10.709Z,1.60
2023-01-15T02:46:40.506Z,1.30
2023-01-15T02:49:14.319Z,1.53
2023-01-15T02:51:48.375Z,1.43
2023-01-15T02:54:20.554Z,1.13
2023-01-15T02:56:50.926Z,1.97
2023-01-15T02:59:24.815Z,1.40
2023-01-15T03:01:58.024Z,1.40
2023-01-15T03:04:32.385Z,0.90
2023-01-15T03:07:07.089Z,1.43
2023-01-15T03:09:37.949Z,1.40
2023-01-15T03:12:11.234Z,1.23
2023-01-15T03:14:50.424Z,1.30
2023-01-15T03:17:21.597Z,1.53
2023-01-15T03:19:55.729Z,1.07
2023-01-15T03:22:28.413Z,1.67
2023-01-15T03:25:00.783Z,1.10
2023-01-15T03:27:32.368Z,1.20
2023-01-15T03:30:07.098Z,1.47
2023-01-15T03:32:35.859Z,1.20
2023-01-15T03:35:07.023Z,1.33
2023-01-15T03:37:41.243Z,1.73
2023-01-15T03:40:12.289Z,1.20
2023-01-15T03:42:48.438Z,1.00
2023-01-15T03:45:24.080Z,1.80
2023-01-15T03:48:01.128Z,1.17
2023-01-15T03:50:34.148Z,1.30
2023-01-15T03:53:09.617Z,1.20
2023-01-15T03:55:48.637Z,1.47
2023-01-15T03:58:21.594Z,1.57
2023-01-15T04:00:53.518Z,1.10
2023-01-15T04:03:25.121Z,1.00
2023-01-15T04:05:54.408Z,1.33
2023-01-15T04:08:23.123Z,1.30
2023-01-15T04:10:55.839Z,1.50
2023-01-15T04:13:28.772Z,1.33
2023-01-15T04:16:01.219Z,1.30
2023-01-15T04:18:30.127Z,1.17
2023-01-15T04:20:59.258Z,1.47
2023-01-15T04:23:28.307Z,1.20
2023-01-15T04:25:56.746Z,1.60
2023-01-15T04:28:24.969Z,1.83
2023-01-15T04:30:53.376Z,1.60
2023-01-15T04:33:23.279Z,1.30
2023-01-15T04:35:52.039Z,1.17
2023-01-15T04:38:20.242Z,2.00
2023-01-15T04:41:06.346Z,1.80
2023-01-15T04:43:51.908Z,1.70
2023-01-15T04:46:22.802Z,1.80
2023-01-15T04:48:52.766Z,1.60
2023-01-15T04:51:21.565Z,1.77
2023-01-15T04:53:50.250Z,1.47
2023-01-15T04:56:18.556Z,1.80
2023-01-15T04:58:46.879Z,1.40
2023-01-15T05:01:16.383Z,1.60
2023-01-15T05:03:44.977Z,1.70
2023-01-15T05:06:15.442Z,1.90
2023-01-15T05:08:43.721Z,1.60
2023-01-15T05:11:12.165Z,1.73
2023-01-15T05:13:40.657Z,1.40
2023-01-15T05:16:11.455Z,2.20
2023-01-15T05:18:40.278Z,1.37
2023-01-15T05:21:11.316Z,1.90
2023-01-15T05:23:41.056Z,1.30
2023-01-15T05:26:09.548Z,1.50
2023-01-15T05:28:37.931Z,1.53
2023-01-15T05:31:11.432Z,2.33
2023-01-15T05:33:40.527Z,1.67
2023-01-15T05:36:10.631Z,1.33
2023-01-15T05:38:40.839Z,1.60
2023-01-15T05:41:24.570Z,1.20
2023-01-15T05:43:53.341Z,1.70
2023-01-15T05:46:22.005Z,1.80
2023-01-15T05:48:50.966Z,1.40
2023-01-15T05:51:19.373Z,1.50
2023-01-15T05:53:49.142Z,1.60
2023-01-15T05:56:17.634Z,1.70
2023-01-15T05:58:46.406Z,1.50
2023-01-15T06:01:14.772Z,2.20
2023-01-15T06:03:43.249Z,1.63
2023-01-15T06:06:14.595Z,1.57
2023-01-15T06:08:43.136Z,1.40
2023-01-15T06:11:13.433Z,1.90
2023-01-15T06:13:42.105Z,2.10
2023-01-15T06:16:11.970Z,1.90
2023-01-15T06:18:41.000Z,1.33
2023-01-15T06:21:12.909Z,1.67
2023-01-15T06:23:41.561Z,1.50
2023-01-15T06:26:14.549Z,1.83
2023-01-15T06:28:43.426Z,1.93
2023-01-15T06:31:13.687Z,1.53
2023-01-15T06:33:42.363Z,1.70
2023-01-15T06:36:12.813Z,2.30
2023-01-15T06:38:42.066Z,1.77
2023-01-15T06:41:27.984Z,2.10
2023-01-15T06:44:13.789Z,1.97
2023-01-15T06:47:02.007Z,2.20
2023-01-15T06:49:30.774Z,1.90
2023-01-15T06:51:59.396Z,2.30
2023-01-15T06:54:27.996Z,1.60
2023-01-15T06:56:57.932Z,2.23
2023-01-15T06:59:26.445Z,2.50
2023-01-15T07:01:54.928Z,2.60
2023-01-15T07:04:23.426Z,2.27
2023-01-15T07:06:52.006Z,2.00
2023-01-15T07:09:20.502Z,2.33
2023-01-15T07:11:51.510Z,1.97
2023-01-15T07:14:22.985Z,1.70
2023-01-15T07:16:51.867Z,1.60
2023-01-15T07:19:20.796Z,2.23
2023-01-15T07:21:49.061Z,2.10
2023-01-15T07:24:17.996Z,2.17
2023-01-15T07:26:46.653Z,2.23
2023-01-15T07:29:15.852Z,2.10
2023-01-15T07:31:45.806Z,1.67
2023-01-15T07:34:14.507Z,2.37
2023-01-15T07:36:42.898Z,3.27
2023-01-15T07:39:12.823Z,2.70
2023-01-15T07:41:58.790Z,1.87
2023-01-15T07:44:44.263Z,2.40
2023-01-15T07:47:36.133Z,2.37
2023-01-15T07:50:04.852Z,2.43
2023-01-15T07:52:33.068Z,2.00
2023-01-15T07:55:01.399Z,2.03
2023-01-15T07:57:29.844Z,1.90
2023-01-15T07:59:58.801Z,2.20
2023-01-15T08:02:28.603Z,1.63
2023-01-15T08:04:56.972Z,2.70
2023-01-15T08:07:25.491Z,2.27
2023-01-15T08:09:53.795Z,1.97
2023-01-15T08:12:39.357Z,1.60
2023-01-15T08:15:16.645Z,1.80
2023-01-15T08:17:48.278Z,3.63
2023-01-15T08:20:18.961Z,1.80
2023-01-15T08:22:47.572Z,2.10
2023-01-15T08:25:17.457Z,2.27
2023-01-15T08:27:46.019Z,1.80
2023-01-15T08:30:17.240Z,2.07
2023-01-15T08:32:47.323Z,1.93
2023-01-15T08:35:15.745Z,2.37
2023-01-15T08:37:44.241Z,2.47
2023-01-15T08:40:13.918Z,2.43
2023-01-15T08:42:42.525Z,2.07
2023-01-15T08:45:11.817Z,2.03
2023-01-15T08:47:40.273Z,2.20
2023-01-15T08:50:11.582Z,2.50
2023-01-15T08:52:40.117Z,2.10
2023-01-15T08:55:09.676Z,1.90
2023-01-15T08:57:38.705Z,2.03
2023-01-15T09:00:09.184Z,1.83
2023-01-15T09:02:37.692Z,2.00
2023-01-15T09:05:07.025Z,2.10
2023-01-15T09:07:37.373Z,2.20
2023-01-15T09:10:06.769Z,1.93
2023-01-15T09:12:35.249Z,2.63
2023-01-15T09:15:04.267Z,2.23
2023-01-15T09:17:33.896Z,2.07
2023-01-15T09:20:03.256Z,3.03
2023-01-15T09:22:31.849Z,2.00
2023-01-15T09:25:01.819Z,2.27
2023-01-15T09:27:30.752Z,2.27
2023-01-15T09:29:59.344Z,2.33
2023-01-15T09:32:28.324Z,2.30
2023-01-15T09:34:56.626Z,2.30
2023-01-15T09:37:25.086Z,2.73
2023-01-15T09:39:53.506Z,2.30
2023-01-15T09:42:33.164Z,2.50
2023-01-15T09:45:20.666Z,2.10
2023-01-15T09:48:13.119Z,2.47
2023-01-15T09:50:56.984Z,2.47
2023-01-15T09:53:44.775Z,2.33
2023-01-15T09:56:18.078Z,3.20
2023-01-15T09:58:48.114Z,2.30
2023-01-15T10:01:19.802Z,2.50
2023-01-15T10:03:52.726Z,2.23
2023-01-15T10:06:24.341Z,2.10
2023-01-15T10:08:53.167Z,2.30
2023-01-15T10:11:50.591Z,2.10
2023-01-15T10:14:43.070Z,2.50
2023-01-15T10:17:26.753Z,2.07
2023-01-15T10:19:55.621Z,2.30
2023-01-15T10:22:32.990Z,1.93
2023-01-15T10:25:04.114Z,2.30
2023-01-15T10:27:33.862Z,2.40
2023-01-15T10:30:09.641Z,3.47
2023-01-15T10:33:01.149Z,2.63
2023-01-15T10:35:40.555Z,2.13
2023-01-15T10:38:15.816Z,2.13
2023-01-15T10:41:07.549Z,1.90
2023-01-15T10:43:46.373Z,2.07
2023-01-15T10:46:18.721Z,2.00
2023-01-15T10:48:50.248Z,3.37
2023-01-15T10:51:21.433Z,2.23
2023-01-15T10:53:52.834Z,3.10
2023-01-15T10:56:30.457Z,2.60
2023-01-15T10:59:02.579Z,2.73
2023-01-15T11:01:33.025Z,3.80
2023-01-15T11:04:01.734Z,3.47
2023-01-15T11:06:32.602Z,2.97
2023-01-15T11:09:10.317Z,2.10
2023-01-15T11:12:03.563Z,1.80
2023-01-15T11:14:50.520Z,1.90
2023-01-15T11:17:38.492Z,2.30
2023-01-15T11:20:17.605Z,2.40
2023-01-15T11:22:46.203Z,2.80
2023-01-15T11:25:15.610Z,2.10
2023-01-15T11:27:44.199Z,2.00
2023-01-15T11:30:27.626Z,1.70
2023-01-15T11:32:58.893Z,1.50
2023-01-15T11:35:28.105Z,1.63
2023-01-15T11:38:04.941Z,1.77
2023-01-15T11:40:33.829Z,1.87
2023-01-15T11:43:19.342Z,1.60
2023-01-15T11:46:04.975Z,1.87
2023-01-15T11:49:02.455Z,1.73
2023-01-15T11:51:33.622Z,0.90
2023-01-15T11:54:05.147Z,1.20
2023-01-15T11:56:35.900Z,1.40
2023-01-15T11:59:10.713Z,1.40
2023-01-15T12:01:41.960Z,1.10
2023-01-15T12:04:34.312Z,1.87
2023-01-15T12:07:03.773Z,1.80
2023-01-15T12:09:50.727Z,1.20
2023-01-15T12:12:26.297Z,2.50
2023-01-15T12:15:17.169Z,2.47
2023-01-15T12:18:15.690Z,1.77
2023-01-15T12:20:59.186Z,1.30
2023-01-15T12:23:44.500Z,1.40
2023-01-15T12:26:19.756Z,1.40
2023-01-15T12:28:55.873Z,1.40
2023-01-15T12:31:28.298Z,1.30
2023-01-15T12:34:01.410Z,1.40
2023-01-15T12:36:34.667Z,1.10
2023-01-15T12:39:05.578Z,1.13
2023-01-15T12:41:53.644Z,2.37
2023-01-15T12:44:44.541Z,3.43
2023-01-15T12:47:16.081Z,1.60
2023-01-15T12:49:47.696Z,1.40
2023-01-15T12:52:24.204Z,2.20
2023-01-15T12:54:57.361Z,1.50
2023-01-15T12:57:32.718Z,2.97
2023-01-15T13:00:04.757Z,3.13
2023-01-15T13:02:38.784Z,3.53
2023-01-15T13:05:17.639Z,1.90
2023-01-15T13:07:53.068Z,1.47
2023-01-15T13:10:24.340Z,1.10
2023-01-15T13:12:53.389Z,1.40
2023-01-15T13:15:24.339Z,1.40
2023-01-15T13:18:02.214Z,1.23
2023-01-15T13:20:40.080Z,1.30
2023-01-15T13:23:18.728Z,1.40
2023-01-15T13:26:14.054Z,1.70
2023-01-15T13:28:55.752Z,1.73
2023-01-15T13:31:49.306Z,1.53
2023-01-15T13:34:24.647Z,1.10
2023-01-15T13:36:54.215Z,2.07
2023-01-15T13:39:25.140Z,1.30
2023-01-15T13:42:12.753Z,1.30
2023-01-15T13:44:47.787Z,1.30
2023-01-15T13:47:24.395Z,1.30
2023-01-15T13:49:55.686Z,1.20
2023-01-15T13:52:27.882Z,1.60
2023-01-15T13:55:00.063Z,1.40
2023-01-15T13:57:35.209Z,1.17
2023-01-15T14:00:06.667Z,1.30
2023-01-15T14:02:41.178Z,1.00
2023-01-15T14:05:29.001Z,1.50
2023-01-15T14:07:57.579Z,1.30
2023-01-15T14:10:40.610Z,1.57
2023-01-15T14:13:46.700Z,2.50
2023-01-15T14:16:29.600Z,2.10
2023-01-15T14:19:22.385Z,1.97
2023-01-15T14:21:59.552Z,1.93
2023-01-15T14:24:46.674Z,2.30
2023-01-15T14:27:25.566Z,1.70
2023-01-15T14:30:09.551Z,1.80
2023-01-15T14:32:49.836Z,2.07
2023-01-15T14:35:21.869Z,1.60
2023-01-15T14:37:52.586Z,1.40
2023-01-15T14:40:25.985Z,1.30
2023-01-15T14:43:01.928Z,2.67
2023-01-15T14:45:32.693Z,4.17
2023-01-15T14:48:02.583Z,4.20
2023-01-15T14:50:38.505Z,5.33
2023-01-15T14:53:20.079Z,2.20
2023-01-15T14:55:50.847Z,1.90
2023-01-15T14:58:48.414Z,2.30
2023-01-15T15:01:38.827Z,2.10
2023-01-15T15:04:23.543Z,1.97
2023-01-15T15:06:54.367Z,2.10
2023-01-15T15:09:30.988Z,2.93
2023-01-15T15:12:22.485Z,2.03
2023-01-15T15:15:01.395Z,1.70
2023-01-15T15:17:36.769Z,1.87
2023-01-15T15:20:27.459Z,1.37
2023-01-15T15:22:59.420Z,1.50
2023-01-15T15:25:31.995Z,1.80
2023-01-15T15:28:05.376Z,1.73
2023-01-15T15:30:36.788Z,2.30
2023-01-15T15:33:06.816Z,1.63
2023-01-15T15:35:36.389Z,1.77
2023-01-15T15:38:06.697Z,2.07
2023-01-15T15:40:36.571Z,1.97
2023-01-15T15:43:29.257Z,1.30
2023-01-15T15:46:17.203Z,1.10
2023-01-15T15:48:53.144Z,1.20
2023-01-15T15:51:28.926Z,1.30
2023-01-15T15:54:16.486Z,1.60
2023-01-15T15:56:49.146Z,1.80
2023-01-15T15:59:33.305Z,1.40
2023-01-15T16:02:15.640Z,1.70
2023-01-15T16:04:48.584Z,2.10
2023-01-15T16:07:25.226Z,23.03
2023-01-15T16:09:55.458Z,19.23
2023-01-15T16:12:24.465Z,7.97
2023-01-15T16:14:53.240Z,12.47
2023-01-15T16:17:23.863Z,6.83
2023-01-15T16:19:52.805Z,9.43
2023-01-15T16:22:21.471Z,10.13
2023-01-15T16:24:57.947Z,9.13
2023-01-15T16:27:29.967Z,5.77
2023-01-15T16:29:58.580Z,4.90
2023-01-15T16:32:30.697Z,5.63
2023-01-15T16:35:07.486Z,4.43
2023-01-15T16:37:36.509Z,2.03
2023-01-15T16:40:07.374Z,1.60
2023-01-15T16:42:39.951Z,2.00
2023-01-15T16:45:19.537Z,1.93
2023-01-15T16:48:03.329Z,2.30
2023-01-15T16:50:32.740Z,12.60
2023-01-15T16:53:02.306Z,2.13
2023-01-15T16:55:39.003Z,1.40
2023-01-15T16:58:18.603Z,1.50
2023-01-15T17:00:48.452Z,1.40
2023-01-15T17:03:20.089Z,1.67
2023-01-15T17:05:50.287Z,2.77
2023-01-15T17:08:20.948Z,2.30
2023-01-15T17:10:57.837Z,1.80
2023-01-15T17:13:33.375Z,2.03
2023-01-15T17:16:05.354Z,1.33
2023-01-15T17:18:35.784Z,1.90
2023-01-15T17:21:04.460Z,1.67
2023-01-15T17:23:39.269Z,2.00
2023-01-15T17:26:08.375Z,1.80
2023-01-15T17:28:36.650Z,1.40
2023-01-15T17:31:05.197Z,1.47
2023-01-15T17:33:34.962Z,1.40
2023-01-15T17:36:03.292Z,3.47
2023-01-15T17:38:31.709Z,3.27
2023-01-15T17:41:01.719Z,1.73
2023-01-15T17:43:30.041Z,2.50
2023-01-15T17:46:00.088Z,2.10
2023-01-15T17:48:29.181Z,1.33
2023-01-15T17:51:01.092Z,2.40
2023-01-15T17:53:29.792Z,1.93
2023-01-15T17:56:15.849Z,2.30
2023-01-15T17:59:01.561Z,1.80
2023-01-15T18:01:49.273Z,2.17
2023-01-15T18:04:37.674Z,2.13
2023-01-15T18:07:07.435Z,1.27
2023-01-15T18:09:36.370Z,2.67
2023-01-15T18:12:05.342Z,1.20
2023-01-15T18:14:33.625Z,1.77
2023-01-15T18:17:03.029Z,1.60
2023-01-15T18:19:31.860Z,1.70
2023-01-15T18:22:00.254Z,1.43
2023-01-15T18:24:29.890Z,1.83
2023-01-15T18:26:58.173Z,1.57
2023-01-15T18:29:26.725Z,1.40
2023-01-15T18:31:54.923Z,1.50
2023-01-15T18:34:23.606Z,1.87
2023-01-15T18:36:52.130Z,2.40
2023-01-15T18:39:20.576Z,1.33
2023-01-15T18:42:07.756Z,1.73
2023-01-15T18:44:53.267Z,1.53
2023-01-15T18:47:22.593Z,1.20
2023-01-15T18:49:54.994Z,1.87
2023-01-15T18:52:41.475Z,1.50
2023-01-15T18:55:10.747Z,0.87
2023-01-15T18:57:41.730Z,1.53
2023-01-15T19:00:12.330Z,1.20
2023-01-15T19:02:41.023Z,1.90
2023-01-15T19:05:12.054Z,1.40
2023-01-15T19:07:40.714Z,1.00
2023-01-15T19:10:10.148Z,1.23
2023-01-15T19:12:40.253Z,1.40
2023-01-15T19:15:27.295Z,1.10
2023-01-15T19:18:13.487Z,1.00
2023-01-15T19:20:41.933Z,0.97
2023-01-15T19:23:10.625Z,0.90
2023-01-15T19:25:40.942Z,1.23
2023-01-15T19:28:13.860Z,1.00
2023-01-15T19:30:42.712Z,1.00
2023-01-15T19:33:11.439Z,1.20
2023-01-15T19:35:40.700Z,1.23
2023-01-15T19:38:10.595Z,1.23
2023-01-15T19:40:42.110Z,1.87
2023-01-15T19:43:30.261Z,1.60
2023-01-15T19:46:12.616Z,2.00
2023-01-15T19:48:58.721Z,1.90
2023-01-15T19:51:47.918Z,1.53
2023-01-15T19:54:36.364Z,1.70
2023-01-15T19:57:04.733Z,1.40
2023-01-15T19:59:34.523Z,1.43
2023-01-15T20:02:04.255Z,2.07
2023-01-15T20:04:32.700Z,1.67
2023-01-15T20:07:01.185Z,1.57
2023-01-15T20:09:29.617Z,1.30
2023-01-15T20:12:21.097Z,1.97
2023-01-15T20:14:50.922Z,1.47
2023-01-15T20:17:19.361Z,2.00
2023-01-15T20:19:47.951Z,1.30
2023-01-15T20:22:16.750Z,1.40
2023-01-15T20:24:45.154Z,1.50
2023-01-15T20:27:14.888Z,1.90
2023-01-15T20:29:43.258Z,2.00
2023-01-15T20:32:13.157Z,2.27
2023-01-15T20:34:41.630Z,2.70
2023-01-15T20:37:10.320Z,2.37
2023-01-15T20:39:39.355Z,2.30
2023-01-15T20:42:25.504Z,2.30
2023-01-15T20:44:56.498Z,2.00
2023-01-15T20:47:45.532Z,2.30
2023-01-15T20:50:16.080Z,2.13
2023-01-15T20:52:46.904Z,2.07
2023-01-15T20:55:15.794Z,2.30
2023-01-15T20:57:45.989Z,2.63
2023-01-15T21:00:18.137Z,1.90
2023-01-15T21:02:48.301Z,1.80
2023-01-15T21:05:17.093Z,2.00
2023-01-15T21:07:45.552Z,1.73
2023-01-15T21:10:14.519Z,1.13
2023-01-15T21:12:42.998Z,1.43
2023-01-15T21:15:12.115Z,1.60
2023-01-15T21:17:41.050Z,1.40
2023-01-15T21:20:14.225Z,1.70
2023-01-15T21:22:43.075Z,1.60
2023-01-15T21:25:13.222Z,1.93
2023-01-15T21:27:41.807Z,1.80
2023-01-15T21:30:11.292Z,2.10
2023-01-15T21:32:39.718Z,3.53
2023-01-15T21:35:10.005Z,1.70
2023-01-15T21:37:38.487Z,2.00
2023-01-15T21:40:08.282Z,2.50
2023-01-15T21:42:54.109Z,2.37
2023-01-15T21:45:22.583Z,2.13
2023-01-15T21:47:50.963Z,2.13
2023-01-15T21:50:21.041Z,2.00
2023-01-15T21:52:49.543Z,2.60
2023-01-15T21:55:18.092Z,2.17
2023-01-15T21:57:48.884Z,2.03
2023-01-15T22:00:20.693Z,1.97
2023-01-15T22:02:49.742Z,1.80
2023-01-15T22:05:18.381Z,1.67
2023-01-15T22:07:48.148Z,1.70
2023-01-15T22:10:17.800Z,1.30
2023-01-15T22:12:46.227Z,1.70
2023-01-15T22:15:15.816Z,1.40
2023-01-15T22:17:44.153Z,1.30
2023-01-15T22:20:13.703Z,1.80
2023-01-15T22:22:42.497Z,2.10
2023-01-15T22:25:15.322Z,2.20
2023-01-15T22:27:43.678Z,2.20
2023-01-15T22:30:13.561Z,2.57
2023-01-15T22:32:41.857Z,2.90
2023-01-15T22:35:10.965Z,2.60
2023-01-15T22:37:39.481Z,2.33
2023-01-15T22:40:09.259Z,2.80
2023-01-15T22:42:39.446Z,2.60
2023-01-15T22:45:08.383Z,2.67
2023-01-15T22:47:36.799Z,2.23
2023-01-15T22:50:05.710Z,2.33
2023-01-15T22:52:34.153Z,2.50
2023-01-15T22:55:02.663Z,2.53
2023-01-15T22:57:31.226Z,2.30
2023-01-15T23:00:00.973Z,2.60
2023-01-15T23:02:47.278Z,2.30
2023-01-15T23:05:15.687Z,2.47
2023-01-15T23:07:44.246Z,2.40
2023-01-15T23:10:13.770Z,2.57
2023-01-15T23:12:42.844Z,2.43
2023-01-15T23:15:14.233Z,2.33
2023-01-15T23:17:44.634Z,1.97
2023-01-15T23:20:14.137Z,1.70
2023-01-15T23:22:42.490Z,1.90
2023-01-15T23:25:11.022Z,2.07
2023-01-15T23:27:39.588Z,2.73
2023-01-15T23:30:09.160Z,2.27
2023-01-15T23:32:39.790Z,2.23
2023-01-15T23:35:09.263Z,1.77
2023-01-15T23:37:37.497Z,2.23
2023-01-15T23:40:07.113Z,2.00
2023-01-15T23:42:49.409Z,2.30
2023-01-15T23:45:34.640Z,2.27
2023-01-15T23:48:04.856Z,2.23
2023-01-15T23:50:33.535Z,2.20
2023-01-15T23:53:01.997Z,2.20
2023-01-15T23:55:30.512Z,2.17
2023-01-15T23:57:58.843Z,2.00
